createdAt,value
2022-12-11T00:01:53.623Z,101104.13
2022-12-11T00:04:21.549Z,101097.31
2022-12-11T00:06:50.836Z,101093.28
2022-12-11T00:09:18.992Z,101101.66
2022-12-11T00:11:46.855Z,101096.97
2022-12-11T00:14:15.339Z,101096.78
2022-12-11T00:16:43.594Z,101094.31
2022-12-11T00:19:11.382Z,101093.47
2022-12-11T00:21:39.081Z,101088.97
2022-12-11T00:24:08.844Z,101095.31
2022-12-11T00:26:36.485Z,101089.78
2022-12-11T00:29:04.951Z,101092.63
2022-12-11T00:31:32.727Z,101088.16
2022-12-11T00:34:02.505Z,101073.44
2022-12-11T00:36:30.265Z,101091.63
2022-12-11T00:38:58.007Z,101088.97
2022-12-11T00:41:27.021Z,101093.94
2022-12-11T00:43:54.732Z,101094.94
2022-12-11T00:46:22.448Z,101095.97
2022-12-11T00:48:50.905Z,101085.66
2022-12-11T00:51:19.142Z,101087.50
2022-12-11T00:53:46.882Z,101094.66
2022-12-11T00:56:17.057Z,101094.47
2022-12-11T00:58:46.441Z,101084.38
2022-12-11T01:01:21.388Z,101089.34
2022-12-11T01:03:49.450Z,101085.00
2022-12-11T01:06:19.496Z,101081.34
2022-12-11T01:08:47.865Z,101084.81
2022-12-11T01:11:16.604Z,101084.19
2022-12-11T01:13:44.285Z,101097.50
2022-12-11T01:16:14.908Z,101089.50
2022-12-11T01:18:43.091Z,101087.03
2022-12-11T01:21:13.672Z,101103.00
2022-12-11T01:23:41.718Z,101091.34
2022-12-11T01:26:10.608Z,101095.03
2022-12-11T01:28:38.400Z,101089.03
2022-12-11T01:31:10.119Z,101089.03
2022-12-11T01:33:39.669Z,101087.22
2022-12-11T01:36:11.775Z,101088.88
2022-12-11T01:38:39.524Z,101086.38
2022-12-11T01:41:10.168Z,101083.94
2022-12-11T01:44:00.176Z,101081.88
2022-12-11T01:46:30.030Z,101081.06
2022-12-11T01:48:59.776Z,101080.03
2022-12-11T01:51:30.500Z,101077.38
2022-12-11T01:54:01.651Z,101071.22
2022-12-11T01:56:33.830Z,101080.22
2022-12-11T01:59:07.210Z,101075.72
2022-12-11T02:01:38.196Z,101074.91
2022-12-11T02:04:09.389Z,101085.56
2022-12-11T02:06:39.475Z,101076.72
2022-12-11T02:09:10.718Z,101083.72
2022-12-11T02:11:51.819Z,101075.09
2022-12-11T02:14:29.654Z,101078.59
2022-12-11T02:17:05.101Z,101083.94
2022-12-11T02:19:51.912Z,101082.28
2022-12-11T02:22:29.116Z,101081.06
2022-12-11T02:25:10.184Z,101074.91
2022-12-11T02:27:45.773Z,101074.47
2022-12-11T02:30:17.148Z,101069.78
2022-12-11T02:32:48.499Z,101065.28
2022-12-11T02:35:20.699Z,101068.75
2022-12-11T02:37:50.834Z,101068.94
2022-12-11T02:40:23.890Z,101068.56
2022-12-11T02:42:53.313Z,101071.41
2022-12-11T02:45:25.083Z,101064.25
2022-12-11T02:47:53.772Z,101062.63
2022-12-11T02:50:23.412Z,101070.22
2022-12-11T02:52:55.802Z,101070.41
2022-12-11T02:55:27.345Z,101069.56
2022-12-11T02:58:03.468Z,101071.41
2022-12-11T03:00:33.133Z,101068.94
2022-12-11T03:03:00.925Z,101065.28
2022-12-11T03:05:28.737Z,101056.00
2022-12-11T03:07:57.175Z,101063.63
2022-12-11T03:10:25.200Z,101056.81
2022-12-11T03:12:56.547Z,101056.81
2022-12-11T03:15:30.694Z,101054.16
2022-12-11T03:18:05.131Z,101050.47
2022-12-11T03:20:39.049Z,101050.66
2022-12-11T03:23:16.524Z,101040.91
2022-12-11T03:25:51.877Z,101058.66
2022-12-11T03:28:21.714Z,101045.22
2022-12-11T03:30:52.464Z,101052.03
2022-12-11T03:33:26.497Z,101046.34
2022-12-11T03:35:57.186Z,101047.19
2022-12-11T03:38:29.468Z,101050.66
2022-12-11T03:41:01.906Z,101040.19
2022-12-11T03:43:30.721Z,101041.19
2022-12-11T03:46:00.646Z,101034.22
2022-12-11T03:48:34.347Z,101036.06
2022-12-11T03:51:04.854Z,101030.72
2022-12-11T03:53:34.242Z,101027.69
2022-12-11T03:56:03.711Z,101019.06
2022-12-11T03:58:31.861Z,101017.59
2022-12-11T04:00:59.542Z,101016.41
2022-12-11T04:03:27.271Z,101020.25
2022-12-11T04:05:57.079Z,101029.91
2022-12-11T04:08:24.798Z,101019.25
2022-12-11T04:11:14.002Z,101026.41
2022-12-11T04:13:42.643Z,101022.56
2022-12-11T04:16:09.994Z,101021.91
2022-12-11T04:19:03.457Z,101024.38
2022-12-11T04:21:50.173Z,101022.72
2022-12-11T04:24:17.842Z,101024.75
2022-12-11T04:26:47.182Z,101022.91
2022-12-11T04:29:15.740Z,101030.91
2022-12-11T04:31:43.463Z,101025.41
2022-12-11T04:34:11.170Z,101020.25
2022-12-11T04:36:40.219Z,101022.09
2022-12-11T04:39:08.000Z,101002.06
2022-12-11T04:41:37.175Z,101025.56
2022-12-11T04:44:05.281Z,101023.75
2022-12-11T04:46:33.286Z,101019.25
2022-12-11T04:49:01.081Z,101016.56
2022-12-11T04:51:29.399Z,101002.78
2022-12-11T04:53:59.441Z,101008.78
2022-12-11T04:56:27.210Z,101007.13
2022-12-11T04:58:54.933Z,101007.28
2022-12-11T05:01:23.701Z,101001.50
2022-12-11T05:03:51.997Z,100991.69
2022-12-11T05:06:19.683Z,100998.28
2022-12-11T05:08:47.311Z,100995.63
2022-12-11T05:11:16.829Z,101009.97
2022-12-11T05:13:45.413Z,100995.63
2022-12-11T05:16:15.446Z,101004.44
2022-12-11T05:18:43.465Z,100996.47
2022-12-11T05:21:12.859Z,100987.81
2022-12-11T05:23:40.857Z,100985.97
2022-12-11T05:26:12.175Z,100988.47
2022-12-11T05:28:41.677Z,100985.81
2022-12-11T05:31:13.081Z,100987.81
2022-12-11T05:33:41.612Z,100987.63
2022-12-11T05:36:10.034Z,100986.16
2022-12-11T05:38:37.720Z,100983.13
2022-12-11T05:41:07.462Z,100987.47
2022-12-11T05:43:37.197Z,100976.34
2022-12-11T05:46:11.178Z,100989.28
2022-12-11T05:48:39.857Z,100990.31
2022-12-11T05:51:08.868Z,100992.78
2022-12-11T05:53:36.889Z,100992.97
2022-12-11T05:56:06.317Z,100995.63
2022-12-11T05:58:34.713Z,100988.38
2022-12-11T06:01:02.560Z,100991.50
2022-12-11T06:03:31.572Z,100998.75
2022-12-11T06:06:02.828Z,100998.09
2022-12-11T06:08:30.693Z,100997.63
2022-12-11T06:10:58.704Z,100990.47
2022-12-11T06:13:26.457Z,100988.72
2022-12-11T06:15:54.204Z,100995.75
2022-12-11T06:18:22.216Z,101000.72
2022-12-11T06:20:51.293Z,100993.50
2022-12-11T06:23:18.969Z,100991.59
2022-12-11T06:25:46.735Z,100984.53
2022-12-11T06:28:14.435Z,100989.38
2022-12-11T06:30:42.068Z,100986.81
2022-12-11T06:33:10.200Z,100987.94
2022-12-11T06:35:42.059Z,100985.84
2022-12-11T06:38:11.596Z,100989.88
2022-12-11T06:40:39.811Z,100991.53
2022-12-11T06:43:07.512Z,100989.31
2022-12-11T06:45:35.200Z,100983.00
2022-12-11T06:48:03.152Z,100976.69
2022-12-11T06:50:31.039Z,100970.66
2022-12-11T06:53:01.643Z,100971.94
2022-12-11T06:55:30.989Z,100980.13
2022-12-11T06:57:58.706Z,100977.19
2022-12-11T07:00:27.150Z,100989.88
2022-12-11T07:02:54.892Z,100992.09
2022-12-11T07:05:22.671Z,100994.50
2022-12-11T07:07:50.518Z,100999.19
2022-12-11T07:10:18.295Z,101003.22
2022-12-11T07:12:47.319Z,101004.63
2022-12-11T07:15:15.013Z,101006.81
2022-12-11T07:17:42.706Z,101000.84
2022-12-11T07:20:11.343Z,101006.00
2022-12-11T07:22:44.636Z,101004.88
2022-12-11T07:25:14.246Z,101008.94
2022-12-11T07:27:42.569Z,101003.97
2022-12-11T07:30:13.109Z,101008.28
2022-12-11T07:32:40.868Z,101007.66
2022-12-11T07:35:09.863Z,101007.84
2022-12-11T07:37:38.187Z,101012.53
2022-12-11T07:40:06.894Z,101016.19
2022-12-11T07:42:34.585Z,101014.72
2022-12-11T07:45:02.282Z,101015.56
2022-12-11T07:47:31.317Z,101011.41
2022-12-11T07:49:58.973Z,101014.09
2022-12-11T07:52:26.732Z,101011.13
2022-12-11T07:54:54.427Z,101015.09
2022-12-11T07:57:22.082Z,101012.22
2022-12-11T07:59:49.802Z,101002.00
2022-12-11T08:02:17.540Z,100998.88
2022-12-11T08:04:46.574Z,101001.38
2022-12-11T08:07:14.456Z,100987.66
2022-12-11T08:09:42.398Z,101009.47
2022-12-11T08:12:10.170Z,101006.91
2022-12-11T08:14:37.902Z,100996.97
2022-12-11T08:17:05.629Z,100994.34
2022-12-11T08:19:33.364Z,100997.91
2022-12-11T08:22:02.403Z,100999.81
2022-12-11T08:24:30.092Z,101003.25
2022-12-11T08:26:57.778Z,101007.06
2022-12-11T08:29:25.471Z,101008.38
2022-12-11T08:31:53.303Z,101007.81
2022-12-11T08:34:23.572Z,101007.88
2022-12-11T08:36:51.260Z,101011.03
2022-12-11T08:39:20.372Z,100999.28
2022-12-11T08:41:48.067Z,101007.59
2022-12-11T08:44:16.896Z,101007.50
2022-12-11T08:46:45.131Z,101007.44
2022-12-11T08:49:12.913Z,101000.34
2022-12-11T08:51:40.589Z,101006.22
2022-12-11T08:54:08.375Z,101006.78
2022-12-11T08:56:37.385Z,101000.19
2022-12-11T08:59:06.375Z,101005.88
2022-12-11T09:01:34.485Z,101011.59
2022-12-11T09:04:02.274Z,101010.13
2022-12-11T09:06:33.439Z,101004.16
2022-12-11T09:09:02.355Z,101008.66
2022-12-11T09:11:32.528Z,101007.81
2022-12-11T09:14:07.200Z,101002.13
2022-12-11T09:16:39.657Z,100993.91
2022-12-11T09:19:09.323Z,100998.59
2022-12-11T09:21:37.058Z,100973.78
2022-12-11T09:24:05.255Z,100988.78
2022-12-11T09:26:33.046Z,100996.28
2022-12-11T09:29:04.932Z,100976.22
2022-12-11T09:31:34.928Z,100988.97
2022-12-11T09:34:06.093Z,100986.63
2022-12-11T09:36:34.244Z,100987.75
2022-12-11T09:39:03.169Z,100988.03
2022-12-11T09:41:40.466Z,100987.03
2022-12-11T09:44:20.902Z,100994.50
2022-12-11T09:46:49.611Z,100990.16
2022-12-11T09:49:26.088Z,100985.75
2022-12-11T09:52:04.957Z,100992.22
2022-12-11T09:54:33.855Z,100983.00
2022-12-11T09:57:11.185Z,100997.88
2022-12-11T09:59:54.392Z,101000.44
2022-12-11T10:02:35.296Z,100982.06
2022-12-11T10:05:15.775Z,100979.13
2022-12-11T10:07:50.488Z,100973.53
2022-12-11T10:10:31.116Z,100975.94
2022-12-11T10:13:06.617Z,100974.03
2022-12-11T10:15:44.988Z,100976.44
2022-12-11T10:18:17.196Z,100983.81
2022-12-11T10:20:45.934Z,100979.00
2022-12-11T10:23:19.973Z,100981.22
2022-12-11T10:25:54.934Z,100975.16
2022-12-11T10:28:22.936Z,100984.44
2022-12-11T10:31:00.424Z,100979.94
2022-12-11T10:33:35.689Z,100975.16
2022-12-11T10:36:03.550Z,100969.56
2022-12-11T10:38:33.222Z,100982.53
2022-12-11T10:41:03.619Z,100985.19
2022-12-11T10:43:36.129Z,100976.53
2022-12-11T10:46:07.618Z,100972.84
2022-12-11T10:48:35.361Z,100966.44
2022-12-11T10:51:07.014Z,100965.78
2022-12-11T10:53:35.603Z,100966.16
2022-12-11T10:56:03.690Z,100962.59
2022-12-11T10:58:34.255Z,100961.66
2022-12-11T11:01:10.102Z,100955.78
2022-12-11T11:03:52.892Z,100943.84
2022-12-11T11:06:22.402Z,100953.91
2022-12-11T11:08:51.966Z,100948.50
2022-12-11T11:11:26.947Z,100953.50
2022-12-11T11:14:07.205Z,100950.72
2022-12-11T11:16:39.231Z,100930.84
2022-12-11T11:19:08.223Z,100946.66
2022-12-11T11:21:36.822Z,100945.78
2022-12-11T11:24:04.996Z,100952.50
2022-12-11T11:27:04.765Z,100948.94
2022-12-11T11:29:29.808Z,100943.16
2022-12-11T11:32:02.089Z,100944.38
2022-12-11T11:34:30.948Z,100931.03
2022-12-11T11:37:05.537Z,100938.59
2022-12-11T11:39:36.935Z,100934.66
2022-12-11T11:42:11.377Z,100933.38
2022-12-11T11:44:44.309Z,100942.22
2022-12-11T11:47:18.432Z,100945.91
2022-12-11T11:49:54.301Z,100938.28
2022-12-11T11:52:30.302Z,100935.59
2022-12-11T11:55:09.586Z,100931.28
2022-12-11T11:57:43.436Z,100935.78
2022-12-11T12:00:20.651Z,100928.97
2022-12-11T12:02:51.320Z,100934.47
2022-12-11T12:05:24.552Z,100931.81
2022-12-11T12:08:05.738Z,100925.66
2022-12-11T12:10:45.197Z,100915.19
2022-12-11T12:13:48.639Z,100916.00
2022-12-11T12:16:51.451Z,100914.53
2022-12-11T12:19:20.970Z,100909.41
2022-12-11T12:21:52.412Z,100911.06
2022-12-11T12:24:31.441Z,100904.06
2022-12-11T12:27:17.577Z,100914.34
2022-12-11T12:30:03.008Z,100908.00
2022-12-11T12:32:38.605Z,100916.19
2022-12-11T12:35:19.642Z,100907.19
2022-12-11T12:37:58.129Z,100910.84
2022-12-11T12:40:33.044Z,100909.03
2022-12-11T12:43:10.076Z,100911.69
2022-12-11T12:45:42.961Z,100902.84
2022-12-11T12:48:11.241Z,100911.41
2022-12-11T12:50:44.732Z,100906.00
2022-12-11T12:53:17.657Z,100901.63
2022-12-11T12:55:47.686Z,100900.34
2022-12-11T12:58:27.532Z,100905.56
2022-12-11T13:00:55.834Z,100897.06
2022-12-11T13:03:26.965Z,100896.53
2022-12-11T13:06:01.886Z,100900.69
2022-12-11T13:08:32.514Z,100895.31
2022-12-11T13:11:03.254Z,100893.19
2022-12-11T13:13:35.682Z,100886.13
2022-12-11T13:16:26.924Z,100892.81
2022-12-11T13:18:54.896Z,100887.63
2022-12-11T13:21:31.042Z,100892.50
2022-12-11T13:24:15.314Z,100897.81
2022-12-11T13:26:44.215Z,100898.38
2022-12-11T13:29:30.320Z,100906.75
2022-12-11T13:32:00.902Z,100904.47
2022-12-11T13:34:34.002Z,100897.88
2022-12-11T13:37:04.592Z,100895.59
2022-12-11T13:39:34.995Z,100902.59
2022-12-11T13:42:05.602Z,100905.06
2022-12-11T13:44:38.933Z,100907.53
2022-12-11T13:47:12.889Z,100901.19
2022-12-11T13:49:43.670Z,100904.53
2022-12-11T13:52:19.293Z,100907.69
2022-12-11T13:54:50.196Z,100916.16
2022-12-11T13:57:20.940Z,100918.63
2022-12-11T13:59:50.467Z,100914.50
2022-12-11T14:02:22.194Z,100920.41
2022-12-11T14:04:52.912Z,100914.63
2022-12-11T14:07:27.869Z,100915.03
2022-12-11T14:10:01.714Z,100920.59
2022-12-11T14:12:31.305Z,100919.78
2022-12-11T14:15:02.267Z,100915.66
2022-12-11T14:17:32.576Z,100912.97
2022-12-11T14:20:07.188Z,100915.03
2022-12-11T14:22:36.734Z,100918.38
2022-12-11T14:25:21.697Z,100913.16
2022-12-11T14:27:51.192Z,100915.09
2022-12-11T14:30:23.429Z,100919.75
2022-12-11T14:32:53.893Z,100916.94
2022-12-11T14:35:30.134Z,100918.84
2022-12-11T14:38:05.449Z,100925.72
2022-12-11T14:40:39.349Z,100913.25
2022-12-11T14:43:12.650Z,100924.41
2022-12-11T14:45:43.688Z,100925.03
2022-12-11T14:48:17.673Z,100926.06
2022-12-11T14:50:50.084Z,100920.06
2022-12-11T14:53:24.290Z,100927.59
2022-12-11T14:55:52.781Z,100929.53
2022-12-11T14:58:24.068Z,100929.66
2022-12-11T15:01:00.858Z,100932.91
2022-12-11T15:03:34.238Z,100924.19
2022-12-11T15:06:03.664Z,100933.41
2022-12-11T15:08:34.442Z,100947.34
2022-12-11T15:11:08.577Z,100942.31
2022-12-11T15:13:40.262Z,100944.56
2022-12-11T15:16:10.139Z,100943.66
2022-12-11T15:18:42.347Z,100945.06
2022-12-11T15:21:13.253Z,100944.00
2022-12-11T15:23:53.428Z,100939.44
2022-12-11T15:26:22.389Z,100933.00
2022-12-11T15:29:00.555Z,100939.81
2022-12-11T15:31:30.088Z,100940.19
2022-12-11T15:33:58.238Z,100943.69
2022-12-11T15:36:31.279Z,100942.22
2022-12-11T15:39:00.420Z,100937.91
2022-12-11T15:41:33.156Z,100949.78
2022-12-11T15:44:02.993Z,100945.47
2022-12-11T15:46:31.386Z,100949.34
2022-12-11T15:48:59.134Z,100949.34
2022-12-11T15:51:27.535Z,100953.03
2022-12-11T15:53:55.384Z,100954.22
2022-12-11T15:56:24.535Z,100951.19
2022-12-11T15:58:52.315Z,100952.13
2022-12-11T16:01:20.111Z,100955.56
2022-12-11T16:03:50.319Z,100936.50
2022-12-11T16:06:18.037Z,100953.78
2022-12-11T16:08:45.774Z,100947.91
2022-12-11T16:11:14.889Z,100947.59
2022-12-11T16:13:43.929Z,100944.72
2022-12-11T16:16:12.235Z,100950.03
2022-12-11T16:18:40.027Z,100960.25
2022-12-11T16:21:08.057Z,100948.25
2022-12-11T16:23:35.781Z,100947.97
2022-12-11T16:26:08.458Z,100939.28
2022-12-11T16:28:36.237Z,100946.22
2022-12-11T16:31:05.322Z,100941.63
2022-12-11T16:33:33.073Z,100944.06
2022-12-11T16:36:00.763Z,100940.75
2022-12-11T16:38:28.465Z,100936.63
2022-12-11T16:41:02.322Z,100921.31
2022-12-11T16:43:30.032Z,100937.59
2022-12-11T16:45:57.912Z,100943.56
2022-12-11T16:48:27.016Z,100944.97
2022-12-11T16:50:54.920Z,100946.34
2022-12-11T16:53:23.157Z,100950.22
2022-12-11T16:55:51.286Z,100951.25
2022-12-11T16:58:20.079Z,100954.28
2022-12-11T17:00:48.790Z,100947.50
2022-12-11T17:03:17.112Z,100942.53
2022-12-11T17:05:46.294Z,100938.41
2022-12-11T17:08:14.080Z,100931.16
2022-12-11T17:10:43.100Z,100929.97
2022-12-11T17:13:10.770Z,100930.16
2022-12-11T17:15:41.887Z,100934.66
2022-12-11T17:18:10.125Z,100932.19
2022-12-11T17:20:41.752Z,100935.66
2022-12-11T17:23:11.189Z,100937.50
2022-12-11T17:25:41.001Z,100935.03
2022-12-11T17:28:08.985Z,100929.88
2022-12-11T17:30:40.720Z,100936.88
2022-12-11T17:33:08.818Z,100933.56
2022-12-11T17:35:36.726Z,100925.75
2022-12-11T17:38:04.552Z,100928.63
2022-12-11T17:40:33.634Z,100936.81
2022-12-11T17:43:01.284Z,100933.94
2022-12-11T17:45:28.948Z,100928.63
2022-12-11T17:47:56.665Z,100927.41
2022-12-11T17:50:24.378Z,100934.41
2022-12-11T17:52:52.084Z,100933.56
2022-12-11T17:55:19.848Z,100936.50
2022-12-11T17:57:49.008Z,100918.91
2022-12-11T18:00:17.022Z,100939.22
2022-12-11T18:02:44.719Z,100937.31
2022-12-11T18:05:13.350Z,100930.88
2022-12-11T18:07:41.241Z,100930.97
2022-12-11T18:10:09.564Z,100929.81
2022-12-11T18:12:37.460Z,100933.50
2022-12-11T18:15:07.543Z,100937.56
2022-12-11T18:17:35.412Z,100933.78
2022-12-11T18:20:03.515Z,100927.31
2022-12-11T18:22:31.248Z,100931.16
2022-12-11T18:24:59.294Z,100933.56
2022-12-11T18:27:27.630Z,100934.34
2022-12-11T18:29:55.345Z,100941.06
2022-12-11T18:32:24.428Z,100923.16
2022-12-11T18:34:52.370Z,100933.38
2022-12-11T18:37:24.717Z,100929.44
2022-12-11T18:39:55.367Z,100934.53
2022-12-11T18:42:38.230Z,100921.75
2022-12-11T18:45:06.941Z,100923.59
2022-12-11T18:47:37.312Z,100921.13
2022-12-11T18:50:08.229Z,100928.69
2022-12-11T18:52:36.448Z,100920.69
2022-12-11T18:55:04.415Z,100923.34
2022-12-11T18:57:32.454Z,100917.13
2022-12-11T19:00:04.702Z,100928.44
2022-12-11T19:02:32.427Z,100924.94
2022-12-11T19:05:01.585Z,100912.69
2022-12-11T19:07:29.422Z,100928.13
2022-12-11T19:09:57.122Z,100926.28
2022-12-11T19:12:25.115Z,100923.00
2022-12-11T19:14:52.811Z,100921.97
2022-12-11T19:17:20.527Z,100911.41
2022-12-11T19:19:48.190Z,100917.94
2022-12-11T19:22:17.244Z,100923.03
2022-12-11T19:24:45.044Z,100924.59
2022-12-11T19:27:13.851Z,100927.19
2022-12-11T19:29:41.788Z,100926.25
2022-12-11T19:32:09.649Z,100921.84
2022-12-11T19:34:38.492Z,100929.91
2022-12-11T19:37:06.266Z,100923.56
2022-12-11T19:39:35.361Z,100929.13
2022-12-11T19:42:03.024Z,100922.28
2022-12-11T19:44:30.701Z,100923.06
2022-12-11T19:46:58.463Z,100932.00
2022-12-11T19:49:26.167Z,100932.34
2022-12-11T19:51:53.838Z,100929.16
2022-12-11T19:54:21.612Z,100929.31
2022-12-11T19:56:50.650Z,100931.91
2022-12-11T19:59:18.677Z,100942.09
2022-12-11T20:01:48.111Z,100937.38
2022-12-11T20:04:17.757Z,100931.41
2022-12-11T20:06:46.719Z,100934.53
2022-12-11T20:09:15.447Z,100937.19
2022-12-11T20:11:45.886Z,100933.91
2022-12-11T20:14:23.520Z,100933.44
2022-12-11T20:17:11.084Z,100932.00
2022-12-11T20:19:40.554Z,100934.03
2022-12-11T20:22:09.079Z,100935.03
2022-12-11T20:24:37.244Z,100929.44
2022-12-11T20:27:05.124Z,100937.19
2022-12-11T20:29:34.206Z,100938.41
2022-12-11T20:32:02.010Z,100939.44
2022-12-11T20:34:29.722Z,100947.81
2022-12-11T20:36:57.418Z,100947.81
2022-12-11T20:39:25.186Z,100945.50
2022-12-11T20:41:52.864Z,100949.19
2022-12-11T20:44:20.542Z,100954.91
2022-12-11T20:46:50.665Z,100950.78
2022-12-11T20:49:18.417Z,100952.81
2022-12-11T20:51:46.096Z,100957.31
2022-12-11T20:54:13.848Z,100946.81
2022-12-11T20:56:41.560Z,100951.50
2022-12-11T20:59:09.631Z,100950.03
2022-12-11T21:01:37.301Z,100956.38
2022-12-11T21:04:06.395Z,100950.41
2022-12-11T21:06:36.066Z,100959.25
2022-12-11T21:09:06.273Z,100954.09
2022-12-11T21:11:34.001Z,100962.94
2022-12-11T21:14:01.734Z,100966.59
2022-12-11T21:16:29.714Z,100959.63
2022-12-11T21:18:58.803Z,100966.03
2022-12-11T21:21:27.863Z,100966.22
2022-12-11T21:23:55.558Z,100971.75
2022-12-11T21:26:23.750Z,100970.28
2022-12-11T21:28:51.558Z,100969.28
2022-12-11T21:31:20.527Z,100967.34
2022-12-11T21:33:49.072Z,100980.13
2022-12-11T21:36:17.180Z,100973.13
2022-12-11T21:38:47.648Z,100972.31
2022-12-11T21:41:17.438Z,100964.31
2022-12-11T21:44:40.907Z,100970.22
2022-12-11T21:46:34.499Z,100967.16
2022-12-11T21:49:02.225Z,100967.16
2022-12-11T21:51:36.882Z,100968.19
2022-12-11T21:54:10.276Z,100969.38
2022-12-11T21:56:38.011Z,100964.03
2022-12-11T21:59:05.765Z,100965.69
2022-12-11T22:01:36.068Z,100964.22
2022-12-11T22:04:04.910Z,100970.03
2022-12-11T22:06:32.641Z,100966.72
2022-12-11T22:09:00.380Z,100976.38
2022-12-11T22:11:31.897Z,100980.88
2022-12-11T22:13:59.640Z,100975.91
2022-12-11T22:16:27.352Z,100982.44
2022-12-11T22:18:55.132Z,100983.91
2022-12-11T22:21:22.771Z,100978.94
2022-12-11T22:23:50.586Z,100979.78
2022-12-11T22:26:20.890Z,100983.47
2022-12-11T22:28:50.606Z,100972.91
2022-12-11T22:31:20.592Z,100987.13
2022-12-11T22:33:49.614Z,100986.50
2022-12-11T22:36:17.785Z,100999.00
2022-12-11T22:38:45.685Z,100986.69
2022-12-11T22:41:20.456Z,100992.84
2022-12-11T22:43:51.280Z,100984.84
2022-12-11T22:46:21.615Z,100979.88
2022-12-11T22:48:49.404Z,100985.66
2022-12-11T22:51:17.174Z,100986.88
2022-12-11T22:53:44.953Z,100975.94
2022-12-11T22:56:13.858Z,100989.06
2022-12-11T22:58:41.822Z,100987.25
2022-12-11T23:01:14.306Z,100974.09
2022-12-11T23:03:42.116Z,100973.09
2022-12-11T23:06:12.338Z,100983.94
2022-12-11T23:08:40.795Z,100981.44
2022-12-11T23:11:12.072Z,100978.97
2022-12-11T23:13:39.740Z,100986.78
2022-12-11T23:16:07.478Z,100978.97
2022-12-11T23:18:36.758Z,100967.47
2022-12-11T23:21:05.389Z,100974.66
2022-12-11T23:23:33.232Z,100969.88
2022-12-11T23:26:01.446Z,100975.84
2022-12-11T23:28:29.162Z,100976.03
2022-12-11T23:30:56.873Z,100980.53
2022-12-11T23:33:24.655Z,100986.06
2022-12-11T23:35:53.741Z,100978.59
2022-12-11T23:38:21.479Z,100982.94
2022-12-11T23:40:49.542Z,100978.59
2022-12-11T23:43:17.342Z,100977.69
2022-12-11T23:45:45.545Z,100991.09
2022-12-11T23:48:14.318Z,100987.81
2022-12-11T23:50:43.745Z,100994.97
2022-12-11T23:53:13.397Z,100997.81
2022-12-11T23:55:42.366Z,100976.13
2022-12-11T23:58:10.766Z,100985.69
